Tyler, TX

9:46 PM CST on February 28, 2015 (GMT -0600)
McDonaldRd | Change Station
CLOSE
Current Station
Personal Weather Station
Location: Tyler, TX
Elevation: 623 ft
Nearby Weather Stations
Active Advisory: Flood Warning Active Notice: Record Report

Elev 623 ft 32.32 °N, 95.27 °W | Updated 4 minutes ago

Overcast
Overcast
37.4 °F
Feels Like 34 °F
N
4.0
Wind Variable Wind from North
Gusts 8.0 mph

Today
High -- | Low -- °F
--% Chance of Precip.
Yesterday
High -- | Low -- °F
Precip. -- in
6:50 AM 6:17 PM
Waxing Gibbous, 82% visible
Pressure 30.32 in
Visibility 10.0 miles
Clouds Overcast 2600 ft
Windchill 34 °F
Dew Point 31 °F
Humidity 78%
Rainfall 0.00 in
Snow Depth Not available.
UV 0 out of 12
Pollen 6.20 out of 12
Air Quality Not available.
Flu Activity Not available.
METAR KTYR 010253Z AUTO 01006KT 10SM OVC026 03/00 A3031 RMK AO2 RAE05 SLP265 P0000 60001 T00280000 53011 $

More Conditions Fewer Conditions

Pressure 30.32 in
Visibility 10.0 miles
Clouds Overcast 2600 ft
Windchill 34 °F
Dew Point 31 °F
Humidity 78%
Rainfall 0.00 in
Snow Depth Not available.
UV 0 out of 12
Pollen 6.20 out of 12
Air Quality Not available.
Flu Activity Not available.
METAR KTYR 010253Z AUTO 01006KT 10SM OVC026 03/00 A3031 RMK AO2 RAE05 SLP265 P0000 60001 T00280000 53011 $

More Conditions Fewer Conditions

Nowcast | as of 9:36 PM CST on February 28, 2015

Scattered light rain or drizzle will continue to move northeast across portions of northeast Texas...northwest Louisiana...and southwest Arkansas. All rain will fall as liquid...as temperatures remain above the freezing mark this evening. Rainfall amounts from a trace to a few hundredths of an inch can be expected over the next couple of hours.

×

10-Day Weather Forecast

Almanac

Astronomy

Feb. 28, 2015 Rise Set
Actual Time
Civil Twilight
Nautical Twilight
Astronomical Twilight
Moon
Length of Visible Light
Length of Day
Tomorrow will be .
, % of the Moon is Illuminated

Today's Extremes

State Highs State Lows

Community

WunderPhotos

Upload Photos

1,801,289 photos uploaded!

WunderBlogs® & News

Nearby

Air Quality

  Air Quality AQ Index Pollutant
Not available.

Snow Depth

Station Depth Elevation

Earthquake Activity

City Distance Mag. Time & Date
Minimum magnitude displayed is 2.5.

Coastal Water Temperatures

Place Temperature

Nearby Weather Stations

Flood Warning
Statement as of 7:38 AM CST on February 28, 2015

The Flood Warning continues for
the Sabine River near Mineola.
* Until Sunday afternoon... or until the warning is cancelled.
* At 7:15 am Saturday the stage was 14.1 feet.
* Minor flooding is occurring and minor flooding is forecast.
* Flood stage is 14.0 feet.
* Forecast... the river will continue to fall to below flood stage by
this evening.
* Impact... at 14.0 feet... expect flooding of secondary roadways with
picnic and recreational areas flooded as well.


Lat... Lon 3278 9574 3263 9535 3257 9535 3259 9550 3273 9574